world map with GPA marked

GPA - Airport

This information may not be accurate or current and is not valid for navigation or flight planning. No warranty of fitness for any purpose is made or implied.

flag of Greece

Donate via PayPal

Additional information is available on the NEW Great Circle Mapper

Location
City:  Patras, Dytikí Elláda (Western Greece), Greece
Name:Araxos
ICAO / IATA:LGRX / GPA

Details
Type:Airport (Aerodrome, Airfield)
Use:Military
Latitude:38°09'04"N (38.151111)
Longitude:21°25'32"E (21.425556)
Datum:WGS 1984
Elevation:46 ft (14 m)
Runways:2
Longest:10999 × 70 ft (3352 × 21.5 m)

Time
Timezone:UTC+2 (DST+5)
Local Time:

Weather
METAR:LGRX  041350Z 05014KT 9999 FEW035 18/09 Q1011 RMK FEW090 FEW180 BLU
TAF:LGRX  (expired)

Related Locations
Nearby:
Farthest:CHT: 11429 mi / 18393 km
Waitangi [Tuuta], CIT, NZ

Find:

   beyond  
but within

Other Information
Maps:
Sources:

  


 


Great Circle Mapper   Great Circle Mapper
Great Circle Mapper FAQ   Great Circle Mapper FAQ
  Karl's Home Page
KLS˛   KLS˛ Home
   GC on Facebook
Airlines of the World   Airlines of the World
Donate via PayPal


Copyright © 2004-2019, Karl L. Swartz. All rights reserved.
All trademarks mentioned herein belong to their respective owners.

Please see credits for attribution and copyright information.

Karl Swartz <karl@kls2.com>
  Powered by FreeBSD
Valid HTML 4.01!
Labeled with ICRA
hCard Microformat
Geo Microformat